createdAt,value
2023-07-06T00:02:27.073Z,14.51
2023-07-06T00:05:00.971Z,14.43
2023-07-06T00:07:36.129Z,14.30
2023-07-06T00:10:10.955Z,14.21
2023-07-06T00:12:44.772Z,14.13
2023-07-06T00:15:18.839Z,14.07
2023-07-06T00:17:52.846Z,14.02
2023-07-06T00:20:26.630Z,13.99
2023-07-06T00:23:00.432Z,13.96
2023-07-06T00:25:35.294Z,13.92
2023-07-06T00:28:09.734Z,13.76
2023-07-06T00:30:55.174Z,13.84
2023-07-06T00:33:29.296Z,13.82
2023-07-06T00:36:04.574Z,13.79
2023-07-06T00:38:39.631Z,13.74
2023-07-06T00:41:14.450Z,13.71
2023-07-06T00:43:54.076Z,13.67
2023-07-06T00:46:38.192Z,13.63
2023-07-06T00:49:17.869Z,13.60
2023-07-06T00:51:51.424Z,13.55
2023-07-06T00:54:25.898Z,13.50
2023-07-06T00:57:00.270Z,13.44
2023-07-06T00:59:35.742Z,13.37
2023-07-06T01:02:11.748Z,13.32
2023-07-06T01:04:47.150Z,13.28
2023-07-06T01:07:25.637Z,13.26
2023-07-06T01:09:59.409Z,13.23
2023-07-06T01:12:34.485Z,13.19
2023-07-06T01:15:10.860Z,13.16
2023-07-06T01:17:55.943Z,13.11
2023-07-06T01:20:40.170Z,13.05
2023-07-06T01:23:42.192Z,12.95
2023-07-06T01:26:35.809Z,12.85
2023-07-06T01:29:37.418Z,12.75
2023-07-06T01:32:14.879Z,12.66
2023-07-06T01:34:54.972Z,12.60
2023-07-06T01:37:33.822Z,12.48
2023-07-06T01:40:11.723Z,12.53
2023-07-06T01:42:45.871Z,12.51
2023-07-06T01:45:21.523Z,12.48
2023-07-06T01:47:58.447Z,12.42
2023-07-06T01:50:42.053Z,12.32
2023-07-06T01:53:22.659Z,12.19
2023-07-06T01:56:03.484Z,12.08
2023-07-06T01:58:45.412Z,12.01
2023-07-06T02:01:24.187Z,11.97
2023-07-06T02:03:59.991Z,11.94
2023-07-06T02:06:34.773Z,11.93
2023-07-06T02:09:10.014Z,11.91
2023-07-06T02:11:43.889Z,11.90
2023-07-06T02:14:17.772Z,11.91
2023-07-06T02:16:53.130Z,11.90
2023-07-06T02:19:27.938Z,11.89
2023-07-06T02:22:05.636Z,11.88
2023-07-06T02:24:40.923Z,11.85
2023-07-06T02:27:14.274Z,11.81
2023-07-06T02:29:47.835Z,11.73
2023-07-06T02:32:21.832Z,11.65
2023-07-06T02:34:55.484Z,11.59
2023-07-06T02:37:31.276Z,11.55
2023-07-06T02:40:05.327Z,11.52
2023-07-06T02:42:39.160Z,11.49
2023-07-06T02:45:14.312Z,11.47
2023-07-06T02:47:48.152Z,11.39
2023-07-06T02:50:22.008Z,11.43
2023-07-06T02:52:56.029Z,11.40
2023-07-06T02:55:30.557Z,11.38
2023-07-06T02:58:04.467Z,11.33
2023-07-06T03:00:38.456Z,11.30
2023-07-06T03:03:12.329Z,11.28
2023-07-06T03:05:48.051Z,11.27
2023-07-06T03:08:22.324Z,11.28
2023-07-06T03:10:56.863Z,11.28
2023-07-06T03:13:30.793Z,11.29
2023-07-06T03:16:04.701Z,11.22
2023-07-06T03:18:38.821Z,11.30
2023-07-06T03:21:12.812Z,11.30
2023-07-06T03:23:46.506Z,11.33
2023-07-06T03:26:20.453Z,11.36
2023-07-06T03:28:54.524Z,11.38
2023-07-06T03:31:31.096Z,11.36
2023-07-06T03:34:07.695Z,11.38
2023-07-06T03:36:41.758Z,11.38
2023-07-06T03:39:15.670Z,11.39
2023-07-06T03:41:49.190Z,11.44
2023-07-06T03:44:23.479Z,11.49
2023-07-06T03:46:59.750Z,11.55
2023-07-06T03:49:35.534Z,11.63
2023-07-06T03:52:10.099Z,11.69
2023-07-06T03:54:43.628Z,11.75
2023-07-06T03:57:17.661Z,11.81
2023-07-06T03:59:52.041Z,11.87
2023-07-06T04:02:25.819Z,11.95
2023-07-06T04:04:59.781Z,12.03
2023-07-06T04:07:33.664Z,12.12
2023-07-06T04:10:09.148Z,12.19
2023-07-06T04:12:43.164Z,12.29
2023-07-06T04:15:18.993Z,12.36
2023-07-06T04:17:53.954Z,12.44
2023-07-06T04:20:29.645Z,12.52
2023-07-06T04:23:04.261Z,12.61
2023-07-06T04:25:39.596Z,12.70
2023-07-06T04:28:15.656Z,12.78
2023-07-06T04:30:52.720Z,12.86
2023-07-06T04:33:27.730Z,12.93
2023-07-06T04:36:03.979Z,13.00
2023-07-06T04:38:37.821Z,13.06
2023-07-06T04:41:13.776Z,13.10
2023-07-06T04:43:47.725Z,13.14
2023-07-06T04:46:23.139Z,13.21
2023-07-06T04:48:57.104Z,13.27
2023-07-06T04:51:31.374Z,13.33
2023-07-06T04:54:05.301Z,13.40
2023-07-06T04:56:39.434Z,13.46
2023-07-06T04:59:13.142Z,13.52
2023-07-06T05:01:46.942Z,13.58
2023-07-06T05:04:20.449Z,13.64
2023-07-06T05:06:55.947Z,13.71
2023-07-06T05:09:29.913Z,13.79
2023-07-06T05:12:03.813Z,13.86
2023-07-06T05:14:37.356Z,13.93
2023-07-06T05:17:11.456Z,13.96
2023-07-06T05:19:45.146Z,14.08
2023-07-06T05:22:20.226Z,14.08
2023-07-06T05:24:54.012Z,14.21
2023-07-06T05:27:27.673Z,14.27
2023-07-06T05:30:01.520Z,14.33
2023-07-06T05:32:35.474Z,14.39
2023-07-06T05:35:18.062Z,14.45
2023-07-06T05:37:53.963Z,14.50
2023-07-06T05:40:27.711Z,14.54
2023-07-06T05:43:01.770Z,14.58
2023-07-06T05:45:35.885Z,14.63
2023-07-06T05:48:10.016Z,14.63
2023-07-06T05:50:43.849Z,14.75
2023-07-06T05:53:18.577Z,14.82
2023-07-06T05:55:52.139Z,14.89
2023-07-06T05:58:26.349Z,14.95
2023-07-06T06:01:01.042Z,15.02
2023-07-06T06:03:36.974Z,15.07
2023-07-06T06:06:12.589Z,15.12
2023-07-06T06:08:46.677Z,15.17
2023-07-06T06:11:20.842Z,15.23
2023-07-06T06:13:57.648Z,15.30
2023-07-06T06:16:34.314Z,15.31
2023-07-06T06:19:09.263Z,15.46
2023-07-06T06:21:43.091Z,15.52
2023-07-06T06:24:17.114Z,15.60
2023-07-06T06:26:50.826Z,15.66
2023-07-06T06:29:24.178Z,15.75
2023-07-06T06:32:00.865Z,15.77
2023-07-06T06:34:34.948Z,15.93
2023-07-06T06:37:10.966Z,16.02
2023-07-06T06:39:47.298Z,16.13
2023-07-06T06:42:21.869Z,16.23
2023-07-06T06:44:59.401Z,16.36
2023-07-06T06:47:33.919Z,16.48
2023-07-06T06:50:10.442Z,16.56
2023-07-06T06:52:44.271Z,16.63
2023-07-06T06:55:18.524Z,16.67
2023-07-06T06:57:52.009Z,16.71
2023-07-06T07:00:25.684Z,16.75
2023-07-06T07:03:00.684Z,16.79
2023-07-06T07:05:34.397Z,16.84
2023-07-06T07:08:08.209Z,16.92
2023-07-06T07:10:41.822Z,16.98
2023-07-06T07:13:16.082Z,17.01
2023-07-06T07:15:50.084Z,16.96
2023-07-06T07:18:24.115Z,17.12
2023-07-06T07:20:57.830Z,17.17
2023-07-06T07:23:42.339Z,17.23
2023-07-06T07:26:18.536Z,17.28
2023-07-06T07:28:52.463Z,17.22
2023-07-06T07:31:29.650Z,17.34
2023-07-06T07:34:03.675Z,17.40
2023-07-06T07:36:37.953Z,17.52
2023-07-06T07:39:12.720Z,17.68
2023-07-06T07:41:47.524Z,17.80
2023-07-06T07:44:21.420Z,17.95
2023-07-06T07:46:54.950Z,18.15
2023-07-06T07:49:28.464Z,18.36
2023-07-06T07:52:03.185Z,18.63
2023-07-06T07:54:36.837Z,18.89
2023-07-06T07:57:13.120Z,19.12
2023-07-06T07:59:50.066Z,19.40
2023-07-06T08:02:23.566Z,19.65
2023-07-06T08:04:58.617Z,19.89
2023-07-06T08:07:34.565Z,20.09
2023-07-06T08:10:10.118Z,20.29
2023-07-06T08:12:44.236Z,20.52
2023-07-06T08:15:18.341Z,20.74
2023-07-06T08:17:51.775Z,20.99
2023-07-06T08:21:01.771Z,21.20
2023-07-06T08:23:19.413Z,21.25
2023-07-06T08:25:54.017Z,21.38
2023-07-06T08:28:33.136Z,21.64
2023-07-06T08:31:13.566Z,22.06
2023-07-06T08:33:50.472Z,22.59
2023-07-06T08:36:26.956Z,23.23
2023-07-06T08:39:01.512Z,23.79
2023-07-06T08:41:43.044Z,24.27
2023-07-06T08:44:20.963Z,24.69
2023-07-06T08:46:55.867Z,24.98
2023-07-06T08:49:34.307Z,25.26
2023-07-06T08:52:13.230Z,25.61
2023-07-06T08:54:55.986Z,25.92
2023-07-06T08:57:32.234Z,26.26
2023-07-06T09:00:06.407Z,26.55
2023-07-06T09:02:41.966Z,26.73
2023-07-06T09:05:18.115Z,26.83
2023-07-06T09:07:53.011Z,27.02
2023-07-06T09:10:30.025Z,27.21
2023-07-06T09:13:25.854Z,27.40
2023-07-06T09:16:03.657Z,27.67
2023-07-06T09:18:37.531Z,27.79
2023-07-06T09:21:11.168Z,27.58
2023-07-06T09:23:48.966Z,27.46
2023-07-06T09:26:35.358Z,27.49
2023-07-06T09:29:24.386Z,27.61
2023-07-06T09:32:20.171Z,27.82
2023-07-06T09:35:04.053Z,27.96
2023-07-06T09:37:46.441Z,28.03
2023-07-06T09:40:21.077Z,27.92
2023-07-06T09:42:55.874Z,27.78
2023-07-06T09:45:32.313Z,27.78
2023-07-06T09:48:17.031Z,27.63
2023-07-06T09:50:59.915Z,27.38
2023-07-06T09:53:36.785Z,27.26
2023-07-06T09:56:14.953Z,27.23
2023-07-06T09:58:50.925Z,27.36
2023-07-06T10:01:36.077Z,27.43
2023-07-06T10:04:49.777Z,27.18
2023-07-06T10:07:31.759Z,26.71
2023-07-06T10:10:16.051Z,26.64
2023-07-06T10:12:56.906Z,26.60
2023-07-06T10:15:39.334Z,26.51
2023-07-06T10:18:20.124Z,26.68
2023-07-06T10:20:59.584Z,26.80
2023-07-06T10:23:37.792Z,26.82
2023-07-06T10:26:22.160Z,26.68
2023-07-06T10:29:01.727Z,26.53
2023-07-06T10:31:43.027Z,26.36
2023-07-06T10:34:33.003Z,26.18
2023-07-06T10:37:08.583Z,26.08
2023-07-06T10:40:03.011Z,26.02
2023-07-06T10:42:38.236Z,26.04
2023-07-06T10:45:37.270Z,26.14
2023-07-06T10:48:17.016Z,26.16
2023-07-06T10:51:08.442Z,26.24
2023-07-06T10:53:43.576Z,26.27
2023-07-06T10:56:22.943Z,26.36
2023-07-06T10:59:02.663Z,26.50
2023-07-06T11:01:41.126Z,26.45
2023-07-06T11:04:42.633Z,26.25
2023-07-06T11:07:37.273Z,25.98
2023-07-06T11:10:33.456Z,25.96
2023-07-06T11:13:22.471Z,25.82
2023-07-06T11:16:07.374Z,25.59
2023-07-06T11:18:47.258Z,25.40
2023-07-06T11:21:34.387Z,25.44
2023-07-06T11:24:13.697Z,25.58
2023-07-06T11:26:54.873Z,25.85
2023-07-06T11:29:32.406Z,26.03
2023-07-06T11:32:18.431Z,26.09
2023-07-06T11:35:08.880Z,26.16
2023-07-06T11:38:14.114Z,26.15
2023-07-06T11:40:49.449Z,26.04
2023-07-06T11:43:41.827Z,25.95
2023-07-06T11:46:28.181Z,26.10
2023-07-06T11:49:22.094Z,26.18
2023-07-06T11:51:59.438Z,26.20
2023-07-06T11:54:49.741Z,26.09
2023-07-06T11:57:30.622Z,25.90
2023-07-06T12:00:20.467Z,25.97
2023-07-06T12:03:02.582Z,26.00
2023-07-06T12:05:41.109Z,26.07
2023-07-06T12:08:21.710Z,26.07
2023-07-06T12:10:59.069Z,26.06
2023-07-06T12:13:37.308Z,26.08
2023-07-06T12:16:20.759Z,26.00
2023-07-06T12:19:01.451Z,25.93
2023-07-06T12:21:40.331Z,25.98
2023-07-06T12:24:18.815Z,26.08
2023-07-06T12:26:55.262Z,26.19
2023-07-06T12:29:34.187Z,26.46
2023-07-06T12:32:14.787Z,26.56
2023-07-06T12:34:49.836Z,26.69
2023-07-06T12:37:26.835Z,26.81
2023-07-06T12:40:00.217Z,26.90
2023-07-06T12:42:35.925Z,27.00
2023-07-06T12:45:15.761Z,27.00
2023-07-06T12:47:57.365Z,27.14
2023-07-06T12:50:37.234Z,27.15
2023-07-06T12:53:24.026Z,27.18
2023-07-06T12:56:02.955Z,27.19
2023-07-06T12:58:37.898Z,27.11
2023-07-06T13:01:21.825Z,27.10
2023-07-06T13:04:03.200Z,27.15
2023-07-06T13:06:45.862Z,27.21
2023-07-06T13:09:22.601Z,27.24
2023-07-06T13:12:01.890Z,27.26
2023-07-06T13:14:40.417Z,27.24
2023-07-06T13:17:23.363Z,27.32
2023-07-06T13:19:58.794Z,27.44
2023-07-06T13:22:32.494Z,27.41
2023-07-06T13:25:06.455Z,27.33
2023-07-06T13:27:40.433Z,27.39
2023-07-06T13:30:18.945Z,27.32
2023-07-06T13:32:52.901Z,27.33
2023-07-06T13:35:28.167Z,27.32
2023-07-06T13:38:05.685Z,27.30
2023-07-06T13:40:39.573Z,27.50
2023-07-06T13:43:19.020Z,27.75
2023-07-06T13:45:53.180Z,27.89
2023-07-06T13:48:26.911Z,27.99
2023-07-06T13:51:00.205Z,28.10
2023-07-06T13:53:34.688Z,28.12
2023-07-06T13:56:16.049Z,28.05
2023-07-06T13:58:50.409Z,27.86
2023-07-06T14:01:27.399Z,27.82
2023-07-06T14:04:03.017Z,27.69
2023-07-06T14:06:35.111Z,27.52
2023-07-06T14:09:08.919Z,27.59
2023-07-06T14:11:47.459Z,27.62
2023-07-06T14:14:21.906Z,27.83
2023-07-06T14:16:55.470Z,28.03
2023-07-06T14:19:29.381Z,28.32
2023-07-06T14:22:02.977Z,28.48
2023-07-06T14:24:37.033Z,28.72
2023-07-06T14:27:13.690Z,28.92
2023-07-06T14:29:48.025Z,28.98
2023-07-06T14:32:21.652Z,28.80
2023-07-06T14:34:55.335Z,28.65
2023-07-06T14:37:30.063Z,28.57
2023-07-06T14:40:04.510Z,28.42
2023-07-06T14:42:38.492Z,27.97
2023-07-06T14:45:14.184Z,27.51
2023-07-06T14:47:47.550Z,27.30
2023-07-06T14:50:25.309Z,27.10
2023-07-06T14:52:59.732Z,26.90
2023-07-06T14:55:34.480Z,26.80
2023-07-06T14:58:08.544Z,26.70
2023-07-06T15:00:42.385Z,26.70
2023-07-06T15:03:16.141Z,26.78
2023-07-06T15:05:50.013Z,26.90
2023-07-06T15:08:23.420Z,27.10
2023-07-06T15:10:57.685Z,27.27
2023-07-06T15:13:31.738Z,27.40
2023-07-06T15:16:05.824Z,27.54
2023-07-06T15:18:39.813Z,27.63
2023-07-06T15:21:17.051Z,27.67
2023-07-06T15:23:51.799Z,27.62
2023-07-06T15:26:25.624Z,27.62
2023-07-06T15:28:59.600Z,27.66
2023-07-06T15:31:33.646Z,27.78
2023-07-06T15:34:07.568Z,27.87
2023-07-06T15:36:41.565Z,28.00
2023-07-06T15:39:15.589Z,28.11
2023-07-06T15:41:52.520Z,28.15
2023-07-06T15:44:26.840Z,28.20
2023-07-06T15:47:00.851Z,28.29
2023-07-06T15:49:35.983Z,28.44
2023-07-06T15:52:11.273Z,28.57
2023-07-06T15:54:48.369Z,28.69
2023-07-06T15:57:22.553Z,28.74
2023-07-06T16:00:09.363Z,28.53
2023-07-06T16:02:47.424Z,28.15
2023-07-06T16:05:21.621Z,28.02
2023-07-06T16:07:55.496Z,27.98
2023-07-06T16:10:29.321Z,27.96
2023-07-06T16:13:04.452Z,27.93
2023-07-06T16:15:38.559Z,27.87
2023-07-06T16:18:12.276Z,27.72
2023-07-06T16:20:55.456Z,27.71
2023-07-06T16:23:28.983Z,27.76
2023-07-06T16:26:10.389Z,27.74
2023-07-06T16:28:46.379Z,27.74
2023-07-06T16:31:21.761Z,27.81
2023-07-06T16:33:55.520Z,27.77
2023-07-06T16:36:28.988Z,27.66
2023-07-06T16:39:02.500Z,27.48
2023-07-06T16:41:35.899Z,27.35
2023-07-06T16:44:09.695Z,27.22
2023-07-06T16:46:43.566Z,27.14
2023-07-06T16:49:17.919Z,27.09
2023-07-06T16:51:51.679Z,27.05
2023-07-06T16:54:25.311Z,26.98
2023-07-06T16:56:58.663Z,26.93
2023-07-06T16:59:32.210Z,26.89
2023-07-06T17:02:07.078Z,26.86
2023-07-06T17:04:41.002Z,26.83
2023-07-06T17:07:14.495Z,26.72
2023-07-06T17:09:51.435Z,26.75
2023-07-06T17:12:25.107Z,26.71
2023-07-06T17:14:58.881Z,26.66
2023-07-06T17:17:33.047Z,26.54
2023-07-06T17:20:08.619Z,26.42
2023-07-06T17:22:44.467Z,26.46
2023-07-06T17:25:19.298Z,27.16
2023-07-06T17:27:53.178Z,27.91
2023-07-06T17:30:27.039Z,27.80
2023-07-06T17:33:01.407Z,27.67
2023-07-06T17:35:35.206Z,27.48
2023-07-06T17:38:08.864Z,27.34
2023-07-06T17:40:42.581Z,27.60
2023-07-06T17:43:15.940Z,27.86
2023-07-06T17:45:49.733Z,28.43
2023-07-06T17:48:25.202Z,28.48
2023-07-06T17:51:03.622Z,29.02
2023-07-06T17:53:38.170Z,29.12
2023-07-06T17:56:12.133Z,29.34
2023-07-06T17:58:45.897Z,29.99
2023-07-06T18:01:19.693Z,30.50
2023-07-06T18:03:53.655Z,30.97
2023-07-06T18:06:29.801Z,31.26
2023-07-06T18:09:04.270Z,31.49
2023-07-06T18:11:37.922Z,31.62
2023-07-06T18:14:12.065Z,31.47
2023-07-06T18:16:48.759Z,30.78
2023-07-06T18:19:23.825Z,30.34
2023-07-06T18:21:58.800Z,29.75
2023-07-06T18:24:32.826Z,29.05
2023-07-06T18:27:07.142Z,28.43
2023-07-06T18:29:40.568Z,27.90
2023-07-06T18:32:14.800Z,27.40
2023-07-06T18:34:49.236Z,26.94
2023-07-06T18:37:23.327Z,26.51
2023-07-06T18:39:56.984Z,26.09
2023-07-06T18:42:31.098Z,25.69
2023-07-06T18:45:08.930Z,25.33
2023-07-06T18:47:42.609Z,24.99
2023-07-06T18:50:16.497Z,24.68
2023-07-06T18:52:50.714Z,24.41
2023-07-06T18:55:25.134Z,24.15
2023-07-06T18:57:58.887Z,23.89
2023-07-06T19:00:36.308Z,23.61
2023-07-06T19:03:10.182Z,23.35
2023-07-06T19:05:45.421Z,23.08
2023-07-06T19:08:23.988Z,22.86
2023-07-06T19:11:05.169Z,22.59
2023-07-06T19:13:39.367Z,22.37
2023-07-06T19:16:13.466Z,22.15
2023-07-06T19:18:47.983Z,21.95
2023-07-06T19:21:22.247Z,21.71
2023-07-06T19:23:57.133Z,21.53
2023-07-06T19:26:31.032Z,21.30
2023-07-06T19:29:05.869Z,21.13
2023-07-06T19:31:42.137Z,20.92
2023-07-06T19:34:14.663Z,20.74
2023-07-06T19:36:49.913Z,20.49
2023-07-06T19:39:23.791Z,20.40
2023-07-06T19:41:58.444Z,20.22
2023-07-06T19:44:32.701Z,20.02
2023-07-06T19:47:08.039Z,19.84
2023-07-06T19:49:45.852Z,19.68
2023-07-06T19:52:22.947Z,19.51
2023-07-06T19:54:57.699Z,19.34
2023-07-06T19:57:43.157Z,19.19
2023-07-06T20:00:21.507Z,19.03
2023-07-06T20:02:56.317Z,18.91
2023-07-06T20:05:32.380Z,18.78
2023-07-06T20:08:07.791Z,18.66
2023-07-06T20:10:42.093Z,18.55
2023-07-06T20:13:19.311Z,18.44
2023-07-06T20:15:53.870Z,18.34
2023-07-06T20:18:28.261Z,18.23
2023-07-06T20:21:02.330Z,18.13
2023-07-06T20:23:36.946Z,18.00
2023-07-06T20:26:13.506Z,17.87
2023-07-06T20:28:48.786Z,17.72
2023-07-06T20:31:23.210Z,17.60
2023-07-06T20:33:57.274Z,17.48
2023-07-06T20:36:33.307Z,17.37
2023-07-06T20:39:08.094Z,17.27
2023-07-06T20:41:43.300Z,17.15
2023-07-06T20:44:19.218Z,17.02
2023-07-06T20:46:54.664Z,16.92
2023-07-06T20:49:28.535Z,16.82
2023-07-06T20:52:03.578Z,16.74
2023-07-06T20:54:37.726Z,16.66
2023-07-06T20:57:12.838Z,16.59
2023-07-06T20:59:48.656Z,16.52
2023-07-06T21:02:23.992Z,16.46
2023-07-06T21:05:02.450Z,16.38
2023-07-06T21:07:37.753Z,16.29
2023-07-06T21:10:12.231Z,16.18
2023-07-06T21:12:46.907Z,16.07
2023-07-06T21:15:20.590Z,15.94
2023-07-06T21:17:53.927Z,15.83
2023-07-06T21:20:28.332Z,15.74
2023-07-06T21:23:04.858Z,15.67
2023-07-06T21:25:38.903Z,15.60
2023-07-06T21:28:15.038Z,15.53
2023-07-06T21:30:48.650Z,15.47
2023-07-06T21:33:22.707Z,15.36
2023-07-06T21:35:56.043Z,15.31
2023-07-06T21:38:29.557Z,15.24
2023-07-06T21:41:02.911Z,15.18
2023-07-06T21:43:36.653Z,15.09
2023-07-06T21:46:11.080Z,15.02
2023-07-06T21:48:46.012Z,14.95
2023-07-06T21:51:19.923Z,14.88
2023-07-06T21:53:54.047Z,14.83
2023-07-06T21:56:27.848Z,14.76
2023-07-06T21:59:01.826Z,14.68
2023-07-06T22:01:35.567Z,14.60
2023-07-06T22:04:09.585Z,14.54
2023-07-06T22:06:43.567Z,14.49
2023-07-06T22:09:17.487Z,14.43
2023-07-06T22:11:51.076Z,14.36
2023-07-06T22:14:24.511Z,14.32
2023-07-06T22:16:58.546Z,14.26
2023-07-06T22:19:31.974Z,14.19
2023-07-06T22:22:05.616Z,14.14
2023-07-06T22:24:38.885Z,14.09
2023-07-06T22:27:12.851Z,14.03
2023-07-06T22:29:47.134Z,13.97
2023-07-06T22:32:20.521Z,13.91
2023-07-06T22:34:53.925Z,13.87
2023-07-06T22:37:27.814Z,13.85
2023-07-06T22:40:01.716Z,13.82
2023-07-06T22:42:35.116Z,13.76
2023-07-06T22:45:10.228Z,13.72
2023-07-06T22:47:43.831Z,13.66
2023-07-06T22:50:17.657Z,13.61
2023-07-06T22:52:51.397Z,13.56
2023-07-06T22:55:24.815Z,13.53
2023-07-06T22:57:58.673Z,13.48
2023-07-06T23:00:35.556Z,13.43
2023-07-06T23:03:07.559Z,13.38
2023-07-06T23:05:41.272Z,13.33
2023-07-06T23:08:16.054Z,13.24
2023-07-06T23:10:51.892Z,13.14
2023-07-06T23:13:26.011Z,13.07
2023-07-06T23:15:59.896Z,13.03
2023-07-06T23:18:34.272Z,13.00
2023-07-06T23:21:12.420Z,12.96
2023-07-06T23:23:46.142Z,12.92
2023-07-06T23:26:24.982Z,12.87
2023-07-06T23:28:59.266Z,12.83
2023-07-06T23:31:39.415Z,12.80
2023-07-06T23:34:13.028Z,12.77
2023-07-06T23:36:47.381Z,12.75
2023-07-06T23:39:21.314Z,12.72
2023-07-06T23:41:54.464Z,12.67
2023-07-06T23:44:28.217Z,12.64
2023-07-06T23:47:01.463Z,12.53
2023-07-06T23:49:35.421Z,12.55
2023-07-06T23:52:10.594Z,12.52
2023-07-06T23:54:43.963Z,12.47
2023-07-06T23:57:17.371Z,12.44
2023-07-06T23:59:50.916Z,12.38
